createdAt,value
2022-09-01T00:01:55.962Z,13.20
2022-09-01T00:04:27.373Z,13.10
2022-09-01T00:06:56.502Z,13.10
2022-09-01T00:09:25.276Z,13.00
2022-09-01T00:11:55.845Z,13.00
2022-09-01T00:14:30.793Z,13.00
2022-09-01T00:17:00.254Z,13.10
2022-09-01T00:19:30.389Z,13.10
2022-09-01T00:21:58.631Z,13.00
2022-09-01T00:24:27.121Z,13.20
2022-09-01T00:26:56.689Z,13.20
2022-09-01T00:29:26.562Z,13.10
2022-09-01T00:31:55.178Z,13.20
2022-09-01T00:34:23.878Z,13.20
2022-09-01T00:36:53.240Z,13.10
2022-09-01T00:39:21.536Z,13.10
2022-09-01T00:41:50.904Z,13.10
2022-09-01T00:44:24.773Z,13.00
2022-09-01T00:46:56.988Z,13.00
2022-09-01T00:49:31.401Z,12.90
2022-09-01T00:52:04.782Z,12.90
2022-09-01T00:54:37.040Z,12.90
2022-09-01T00:57:06.565Z,12.90
2022-09-01T00:59:34.668Z,12.80
2022-09-01T01:02:02.974Z,12.70
2022-09-01T01:04:31.493Z,12.70
2022-09-01T01:07:03.129Z,12.70
2022-09-01T01:09:34.439Z,12.60
2022-09-01T01:12:05.280Z,12.60
2022-09-01T01:14:37.039Z,12.60
2022-09-01T01:17:05.453Z,12.70
2022-09-01T01:20:00.586Z,12.70
2022-09-01T01:22:55.514Z,12.60
2022-09-01T01:25:25.649Z,12.50
2022-09-01T01:28:04.060Z,12.50
2022-09-01T01:30:35.568Z,12.40
2022-09-01T01:33:05.267Z,12.50
2022-09-01T01:35:33.811Z,12.40
2022-09-01T01:38:08.017Z,12.40
2022-09-01T01:40:38.738Z,12.50
2022-09-01T01:43:07.577Z,12.30
2022-09-01T01:45:36.494Z,12.30
2022-09-01T01:48:06.117Z,12.30
2022-09-01T01:50:38.002Z,12.30
2022-09-01T01:53:11.034Z,12.20
2022-09-01T01:55:43.878Z,12.20
2022-09-01T01:58:15.025Z,12.20
2022-09-01T02:00:47.583Z,12.20
2022-09-01T02:03:19.120Z,12.10
2022-09-01T02:05:48.813Z,12.00
2022-09-01T02:08:21.220Z,12.10
2022-09-01T02:10:53.273Z,11.90
2022-09-01T02:13:31.224Z,11.90
2022-09-01T02:16:02.615Z,11.90
2022-09-01T02:18:36.132Z,11.90
2022-09-01T02:21:07.220Z,12.00
2022-09-01T02:23:35.724Z,11.90
2022-09-01T02:26:22.293Z,11.90
2022-09-01T02:28:54.703Z,11.90
2022-09-01T02:31:28.075Z,11.90
2022-09-01T02:33:57.586Z,11.90
2022-09-01T02:36:26.156Z,11.80
2022-09-01T02:38:56.845Z,11.80
2022-09-01T02:41:29.347Z,11.70
2022-09-01T02:44:02.368Z,11.60
2022-09-01T02:46:31.598Z,11.60
2022-09-01T02:49:00.791Z,11.70
2022-09-01T02:51:29.628Z,11.60
2022-09-01T02:53:58.641Z,11.50
2022-09-01T02:56:28.251Z,11.60
2022-09-01T02:58:56.761Z,11.50
2022-09-01T03:01:30.313Z,11.50
2022-09-01T03:04:02.046Z,11.50
2022-09-01T03:06:34.704Z,11.40
2022-09-01T03:09:05.649Z,11.60
2022-09-01T03:11:37.040Z,11.50
2022-09-01T03:14:06.252Z,11.50
2022-09-01T03:16:34.654Z,11.50
2022-09-01T03:19:04.356Z,11.50
2022-09-01T03:21:32.730Z,11.50
2022-09-01T03:24:02.227Z,11.40
2022-09-01T03:26:32.168Z,11.30
2022-09-01T03:29:01.966Z,11.30
2022-09-01T03:31:31.541Z,11.30
2022-09-01T03:34:03.488Z,11.40
2022-09-01T03:36:35.482Z,11.20
2022-09-01T03:39:04.044Z,11.40
2022-09-01T03:41:33.564Z,11.30
2022-09-01T03:44:03.139Z,11.30
2022-09-01T03:46:36.870Z,11.20
2022-09-01T03:49:08.164Z,11.20
2022-09-01T03:51:39.447Z,11.20
2022-09-01T03:54:09.628Z,11.30
2022-09-01T03:56:41.784Z,11.30
2022-09-01T03:59:17.695Z,11.20
2022-09-01T04:01:48.457Z,11.40
2022-09-01T04:04:17.628Z,11.30
2022-09-01T04:06:47.987Z,11.40
2022-09-01T04:09:16.539Z,11.40
2022-09-01T04:11:47.012Z,11.40
2022-09-01T04:14:18.279Z,11.40
2022-09-01T04:17:06.445Z,11.40
2022-09-01T04:19:37.229Z,11.50
2022-09-01T04:22:07.912Z,11.50
2022-09-01T04:24:45.948Z,11.60
2022-09-01T04:27:15.820Z,11.50
2022-09-01T04:29:46.884Z,11.60
2022-09-01T04:32:15.932Z,11.60
2022-09-01T04:34:50.608Z,11.60
2022-09-01T04:37:22.153Z,11.80
2022-09-01T04:40:03.010Z,11.80
2022-09-01T04:42:33.046Z,11.90
2022-09-01T04:45:11.327Z,12.00
2022-09-01T04:47:44.514Z,12.00
2022-09-01T04:50:18.256Z,12.10
2022-09-01T04:53:07.142Z,12.10
2022-09-01T04:55:50.294Z,12.20
2022-09-01T04:58:22.127Z,12.20
2022-09-01T05:00:53.147Z,12.20
2022-09-01T05:03:24.581Z,12.30
2022-09-01T05:06:01.366Z,12.40
2022-09-01T05:08:32.776Z,12.50
2022-09-01T05:11:07.785Z,12.50
2022-09-01T05:13:43.551Z,12.60
2022-09-01T05:16:15.830Z,12.90
2022-09-01T05:18:49.038Z,12.80
2022-09-01T05:21:22.268Z,12.80
2022-09-01T05:23:51.783Z,12.90
2022-09-01T05:26:23.927Z,13.00
2022-09-01T05:28:56.610Z,12.90
2022-09-01T05:31:29.313Z,13.10
2022-09-01T05:33:58.309Z,13.20
2022-09-01T05:36:26.853Z,13.20
2022-09-01T05:38:59.182Z,13.30
2022-09-01T05:41:28.624Z,13.30
2022-09-01T05:44:00.516Z,13.40
2022-09-01T05:46:31.758Z,13.50
2022-09-01T05:49:00.165Z,13.50
2022-09-01T05:51:44.452Z,13.70
2022-09-01T05:54:16.432Z,13.70
2022-09-01T05:56:45.378Z,13.90
2022-09-01T05:59:25.179Z,13.90
2022-09-01T06:02:01.056Z,13.90
2022-09-01T06:04:30.389Z,13.70
2022-09-01T06:07:09.636Z,13.70
2022-09-01T06:09:45.330Z,13.90
2022-09-01T06:12:19.026Z,14.20
2022-09-01T06:14:49.119Z,14.10
2022-09-01T06:17:25.315Z,14.10
2022-09-01T06:19:56.291Z,14.30
2022-09-01T06:22:26.315Z,14.40
2022-09-01T06:25:01.130Z,14.50
2022-09-01T06:27:33.963Z,14.50
2022-09-01T06:30:02.972Z,14.60
2022-09-01T06:32:38.674Z,14.80
2022-09-01T06:35:08.560Z,14.90
2022-09-01T06:37:38.592Z,14.90
2022-09-01T06:40:16.987Z,15.00
2022-09-01T06:42:47.427Z,14.90
2022-09-01T06:45:16.464Z,15.00
2022-09-01T06:47:47.936Z,15.10
2022-09-01T06:56:02.897Z,15.40
2022-09-01T06:58:32.206Z,15.50
2022-09-01T07:01:01.034Z,15.50
2022-09-01T07:03:32.183Z,15.50
2022-09-01T07:06:02.335Z,15.60
2022-09-01T07:14:30.395Z,15.70
2022-09-01T07:17:23.118Z,15.90
2022-09-01T07:19:48.987Z,15.90
2022-09-01T07:25:11.810Z,15.90
2022-09-01T07:28:00.432Z,16.10
2022-09-01T07:30:31.734Z,16.00
2022-09-01T07:33:41.701Z,16.10
2022-09-01T07:39:48.651Z,16.30
2022-09-01T07:44:45.709Z,16.40
2022-09-01T07:47:53.056Z,16.40
2022-09-01T07:50:38.790Z,16.50
2022-09-01T07:53:11.408Z,16.40
2022-09-01T07:55:44.024Z,16.50
2022-09-01T07:58:13.209Z,16.60
2022-09-01T08:00:45.209Z,16.80
2022-09-01T08:03:14.543Z,16.70
2022-09-01T08:05:43.716Z,16.80
2022-09-01T08:08:23.709Z,16.50
2022-09-01T08:11:03.900Z,16.90
2022-09-01T08:13:38.858Z,17.40
2022-09-01T08:16:18.593Z,17.60
2022-09-01T08:18:49.710Z,17.80
2022-09-01T08:21:36.800Z,17.60
2022-09-01T08:24:22.016Z,18.20
2022-09-01T08:26:50.247Z,18.00
2022-09-01T08:29:18.781Z,18.00
2022-09-01T08:31:48.007Z,17.80
2022-09-01T08:34:17.092Z,18.00
2022-09-01T08:36:45.322Z,17.90
2022-09-01T08:39:13.596Z,17.70
2022-09-01T08:41:49.307Z,17.80
2022-09-01T08:44:29.247Z,17.80
2022-09-01T08:47:02.292Z,17.80
2022-09-01T08:49:42.134Z,17.90
2022-09-01T08:52:20.712Z,17.50
2022-09-01T08:54:53.206Z,17.50
2022-09-01T08:57:27.817Z,17.70
2022-09-01T09:00:18.290Z,18.40
2022-09-01T09:02:58.753Z,18.90
2022-09-01T09:05:49.010Z,19.50
2022-09-01T09:08:47.426Z,18.90
2022-09-01T09:11:37.342Z,17.90
2022-09-01T09:14:16.010Z,17.80
2022-09-01T09:16:51.625Z,18.10
2022-09-01T09:19:26.014Z,18.10
2022-09-01T09:21:57.052Z,18.30
2022-09-01T09:24:37.891Z,18.10
2022-09-01T09:27:09.705Z,17.80
2022-09-01T09:29:40.480Z,18.20
2022-09-01T09:32:44.381Z,18.20
2022-09-01T09:35:19.600Z,18.80
2022-09-01T09:37:47.766Z,19.50
2022-09-01T09:40:18.544Z,19.80
2022-09-01T09:43:09.426Z,19.80
2022-09-01T09:45:42.944Z,20.10
2022-09-01T09:48:29.459Z,19.20
2022-09-01T09:51:15.920Z,18.80
2022-09-01T09:53:45.022Z,18.90
2022-09-01T09:56:20.435Z,18.70
2022-09-01T09:58:50.778Z,19.10
2022-09-01T10:01:31.888Z,19.30
2022-09-01T10:04:01.975Z,19.80
2022-09-01T10:06:36.303Z,19.60
2022-09-01T10:09:07.498Z,19.80
2022-09-01T10:11:40.853Z,19.90
2022-09-01T10:14:35.389Z,19.70
2022-09-01T10:17:13.354Z,19.80
2022-09-01T10:19:50.779Z,18.80
2022-09-01T10:22:18.924Z,19.20
2022-09-01T10:24:50.493Z,19.80
2022-09-01T10:27:23.057Z,19.10
2022-09-01T10:30:14.208Z,19.10
2022-09-01T10:32:55.247Z,18.80
2022-09-01T10:35:27.865Z,18.50
2022-09-01T10:37:59.134Z,18.80
2022-09-01T10:40:43.453Z,19.00
2022-09-01T10:43:37.927Z,19.20
2022-09-01T10:46:15.713Z,19.20
2022-09-01T10:48:48.392Z,19.10
2022-09-01T10:51:51.447Z,19.10
2022-09-01T10:54:59.496Z,18.80
2022-09-01T10:57:42.269Z,18.50
2022-09-01T11:04:03.737Z,19.50
2022-09-01T11:07:29.829Z,20.10
2022-09-01T11:10:32.070Z,19.70
2022-09-01T11:13:25.716Z,19.30
2022-09-01T11:15:55.149Z,18.80
2022-09-01T11:18:29.602Z,18.70
2022-09-01T11:21:16.087Z,19.20
2022-09-01T11:23:46.462Z,19.60
2022-09-01T11:26:49.358Z,19.70
2022-09-01T11:29:55.584Z,19.90
2022-09-01T11:32:28.931Z,19.70
2022-09-01T11:34:58.328Z,20.20
2022-09-01T11:37:27.928Z,20.80
2022-09-01T11:39:59.644Z,20.40
2022-09-01T11:42:31.053Z,20.00
2022-09-01T11:45:03.498Z,19.90
2022-09-01T11:47:36.659Z,20.00
2022-09-01T11:50:08.590Z,19.80
2022-09-01T11:52:42.490Z,19.90
2022-09-01T11:55:11.909Z,19.50
2022-09-01T11:57:41.298Z,19.40
2022-09-01T12:00:12.241Z,19.60
2022-09-01T12:02:47.254Z,19.20
2022-09-01T12:05:28.879Z,19.00
2022-09-01T12:08:00.453Z,19.60
2022-09-01T12:10:35.715Z,19.50
2022-09-01T12:13:06.593Z,19.30
2022-09-01T12:15:39.325Z,18.70
2022-09-01T12:18:21.014Z,19.10
2022-09-01T12:20:51.171Z,19.40
2022-09-01T12:23:26.179Z,20.10
2022-09-01T12:25:56.019Z,20.20
2022-09-01T12:28:26.093Z,20.20
2022-09-01T12:31:00.512Z,20.40
2022-09-01T12:33:29.369Z,19.60
2022-09-01T12:36:22.885Z,19.80
2022-09-01T12:38:53.991Z,19.60
2022-09-01T12:41:35.166Z,19.00
2022-09-01T12:44:30.366Z,19.20
2022-09-01T12:47:00.660Z,19.10
2022-09-01T12:49:38.007Z,19.00
2022-09-01T12:52:26.180Z,19.00
2022-09-01T12:55:09.318Z,19.00
2022-09-01T12:57:39.596Z,19.80
2022-09-01T13:00:16.204Z,20.10
2022-09-01T13:02:46.189Z,20.40
2022-09-01T13:05:41.703Z,20.70
2022-09-01T13:08:12.563Z,20.10
2022-09-01T13:10:44.709Z,20.60
2022-09-01T13:13:15.165Z,20.50
2022-09-01T13:15:48.249Z,20.90
2022-09-01T13:18:17.256Z,20.90
2022-09-01T13:20:46.198Z,20.50
2022-09-01T13:23:14.430Z,20.00
2022-09-01T13:25:48.558Z,19.90
2022-09-01T13:28:18.826Z,19.40
2022-09-01T13:31:28.533Z,19.00
2022-09-01T13:36:51.617Z,18.70
2022-09-01T13:39:20.870Z,18.70
2022-09-01T13:41:50.461Z,19.00
2022-09-01T13:44:19.561Z,19.20
2022-09-01T13:50:06.391Z,19.70
2022-09-01T13:52:26.044Z,20.10
2022-09-01T13:54:54.112Z,19.90
2022-09-01T13:57:23.567Z,20.90
2022-09-01T13:59:53.201Z,20.60
2022-09-01T14:02:21.755Z,20.90
2022-09-01T14:04:49.899Z,21.10
2022-09-01T14:07:18.981Z,21.00
2022-09-01T14:09:47.484Z,20.90
2022-09-01T14:12:15.646Z,20.40
2022-09-01T14:17:33.419Z,20.70
2022-09-01T14:20:01.624Z,20.20
2022-09-01T14:22:33.185Z,19.50
2022-09-01T14:25:05.633Z,19.30
2022-09-01T14:27:33.743Z,18.90
2022-09-01T14:30:03.356Z,18.80
2022-09-01T14:32:31.613Z,18.60
2022-09-01T14:35:00.113Z,18.40
2022-09-01T14:37:28.423Z,18.40
2022-09-01T14:39:58.832Z,18.40
2022-09-01T14:42:29.310Z,18.40
2022-09-01T14:44:57.677Z,18.30
2022-09-01T14:47:27.199Z,18.30
2022-09-01T14:49:55.997Z,18.40
2022-09-01T14:52:24.245Z,18.40
2022-09-01T14:54:52.933Z,18.30
2022-09-01T14:57:30.817Z,18.30
2022-09-01T15:00:10.437Z,18.30
2022-09-01T15:02:40.146Z,18.50
2022-09-01T15:05:09.798Z,18.80
2022-09-01T15:07:38.536Z,19.00
2022-09-01T15:10:08.222Z,19.00
2022-09-01T15:12:39.845Z,19.10
2022-09-01T15:15:10.597Z,19.20
2022-09-01T15:17:42.249Z,19.20
2022-09-01T15:20:30.322Z,19.10
2022-09-01T15:22:58.789Z,19.00
2022-09-01T15:25:27.257Z,19.00
2022-09-01T15:27:55.422Z,19.10
2022-09-01T15:30:23.580Z,19.20
2022-09-01T15:32:55.248Z,19.30
2022-09-01T15:35:24.100Z,19.20
2022-09-01T15:37:53.091Z,19.00
2022-09-01T15:40:21.388Z,19.10
2022-09-01T15:42:49.558Z,19.30
2022-09-01T15:45:21.115Z,19.40
2022-09-01T15:47:49.900Z,19.40
2022-09-01T15:50:22.267Z,19.30
2022-09-01T15:52:54.318Z,19.20
2022-09-01T15:55:25.043Z,19.00
2022-09-01T15:57:54.965Z,19.00
2022-09-01T16:00:24.871Z,18.90
2022-09-01T16:02:54.453Z,19.00
2022-09-01T16:05:25.165Z,19.00
2022-09-01T16:07:53.470Z,18.90
2022-09-01T16:10:21.897Z,19.00
2022-09-01T16:12:51.876Z,18.90
2022-09-01T16:15:22.555Z,18.80
2022-09-01T16:18:07.823Z,18.70
2022-09-01T16:20:41.797Z,18.70
2022-09-01T16:23:17.060Z,18.60
2022-09-01T16:25:46.268Z,18.60
2022-09-01T16:28:24.979Z,18.60
2022-09-01T16:30:58.853Z,18.50
2022-09-01T16:33:27.084Z,18.50
2022-09-01T16:36:11.277Z,18.50
2022-09-01T16:38:47.589Z,18.40
2022-09-01T16:41:36.628Z,18.40
2022-09-01T16:44:17.043Z,18.30
2022-09-01T16:46:53.795Z,18.10
2022-09-01T16:49:28.115Z,18.10
2022-09-01T16:52:05.710Z,18.10
2022-09-01T16:54:47.751Z,18.00
2022-09-01T16:57:25.109Z,17.90
2022-09-01T16:59:56.029Z,17.90
2022-09-01T17:02:46.515Z,17.70
2022-09-01T17:05:24.255Z,17.70
2022-09-01T17:08:06.151Z,17.70
2022-09-01T17:10:41.883Z,17.50
2022-09-01T17:13:20.406Z,17.60
2022-09-01T17:16:02.683Z,17.70
2022-09-01T17:18:38.523Z,17.50
2022-09-01T17:21:12.643Z,17.20
2022-09-01T17:23:50.186Z,17.20
2022-09-01T17:26:23.417Z,17.10
2022-09-01T17:28:56.412Z,17.10
2022-09-01T17:31:42.833Z,17.00
2022-09-01T17:34:29.154Z,17.10
2022-09-01T17:37:06.222Z,17.00
2022-09-01T17:39:49.574Z,16.90
2022-09-01T17:42:25.198Z,16.90
2022-09-01T17:44:56.713Z,16.70
2022-09-01T17:47:35.949Z,16.70
2022-09-01T17:50:13.911Z,16.60
2022-09-01T17:52:54.777Z,16.60
2022-09-01T17:55:39.863Z,16.40
2022-09-01T17:58:14.649Z,16.40
2022-09-01T18:00:51.021Z,16.40
2022-09-01T18:03:38.522Z,16.40
2022-09-01T18:06:11.442Z,16.30
2022-09-01T18:08:44.159Z,16.20
2022-09-01T18:11:17.445Z,16.30
2022-09-01T18:13:54.288Z,16.20
2022-09-01T18:16:26.505Z,16.10
2022-09-01T18:18:54.889Z,16.30
2022-09-01T18:21:27.419Z,16.30
2022-09-01T18:24:12.447Z,16.20
2022-09-01T18:26:44.600Z,16.30
2022-09-01T18:29:12.718Z,16.20
2022-09-01T18:32:00.352Z,16.10
2022-09-01T18:34:43.366Z,16.20
2022-09-01T18:37:20.191Z,16.10
2022-09-01T18:39:58.372Z,16.20
2022-09-01T18:42:36.570Z,16.30
2022-09-01T18:45:12.111Z,16.10
2022-09-01T18:47:49.240Z,15.90
2022-09-01T18:50:24.837Z,16.00
2022-09-01T18:53:07.028Z,15.90
2022-09-01T18:55:43.569Z,15.90
2022-09-01T18:58:26.574Z,15.80
2022-09-01T19:01:02.615Z,15.90
2022-09-01T19:03:35.993Z,15.80
2022-09-01T19:06:28.180Z,15.90
2022-09-01T19:09:10.398Z,15.80
2022-09-01T19:11:50.907Z,15.80
2022-09-01T19:14:30.123Z,15.80
2022-09-01T19:17:27.991Z,15.70
2022-09-01T19:20:00.605Z,15.70
2022-09-01T19:22:36.682Z,15.50
2022-09-01T19:25:26.665Z,15.40
2022-09-01T19:27:59.726Z,15.40
2022-09-01T19:30:29.940Z,15.30
2022-09-01T19:33:00.152Z,15.20
2022-09-01T19:35:31.212Z,15.10
2022-09-01T19:37:59.615Z,15.00
2022-09-01T19:43:09.194Z,15.00
2022-09-01T19:45:52.633Z,15.00
2022-09-01T19:48:25.606Z,15.00
2022-09-01T19:50:58.784Z,14.90
2022-09-01T19:53:40.040Z,14.80
2022-09-01T19:56:13.207Z,14.90
2022-09-01T19:58:51.640Z,14.90
2022-09-01T20:01:31.814Z,14.80
2022-09-01T20:04:06.265Z,14.80
2022-09-01T20:06:35.893Z,14.70
2022-09-01T20:09:10.555Z,14.60
2022-09-01T20:11:47.377Z,14.60
2022-09-01T20:14:57.170Z,14.60
2022-09-01T20:17:31.037Z,14.60
2022-09-01T20:20:07.647Z,14.50
2022-09-01T20:22:45.397Z,14.40
2022-09-01T20:25:16.328Z,14.50
2022-09-01T20:27:52.353Z,14.40
2022-09-01T20:30:21.933Z,14.30
2022-09-01T20:32:59.446Z,14.30
2022-09-01T20:35:37.631Z,14.30
2022-09-01T20:38:34.009Z,14.20
2022-09-01T20:41:08.932Z,14.30
2022-09-01T20:43:41.440Z,14.30
2022-09-01T20:46:09.948Z,14.10
2022-09-01T20:48:41.769Z,14.20
2022-09-01T20:51:15.370Z,14.00
2022-09-01T20:54:07.263Z,14.00
2022-09-01T20:56:42.280Z,13.90
2022-09-01T20:59:18.889Z,13.90
2022-09-01T21:01:53.715Z,13.90
2022-09-01T21:04:42.577Z,14.10
2022-09-01T21:07:15.743Z,13.90
2022-09-01T21:09:55.474Z,13.80
2022-09-01T21:12:34.793Z,13.70
2022-09-01T21:15:17.752Z,13.70
2022-09-01T21:17:55.474Z,13.70
2022-09-01T21:20:35.529Z,13.60
2022-09-01T21:23:03.819Z,13.70
2022-09-01T21:25:34.866Z,13.60
2022-09-01T21:28:06.763Z,13.50
2022-09-01T21:30:36.931Z,13.50
2022-09-01T21:33:06.272Z,13.50
2022-09-01T21:35:35.747Z,13.40
2022-09-01T21:38:03.838Z,13.30
2022-09-01T21:40:32.214Z,13.40
2022-09-01T21:43:03.929Z,13.30
2022-09-01T21:45:34.512Z,13.30
2022-09-01T21:48:03.676Z,13.20
2022-09-01T21:50:32.299Z,13.20
2022-09-01T21:53:01.797Z,13.20
2022-09-01T21:55:30.490Z,13.20
2022-09-01T21:57:58.716Z,13.10
2022-09-01T22:00:28.688Z,13.00
2022-09-01T22:02:59.478Z,13.10
2022-09-01T22:05:28.402Z,13.00
2022-09-01T22:07:59.010Z,12.90
2022-09-01T22:10:31.461Z,12.90
2022-09-01T22:13:03.502Z,12.90
2022-09-01T22:15:32.023Z,12.90
2022-09-01T22:18:00.131Z,13.00
2022-09-01T22:20:29.272Z,12.80
2022-09-01T22:22:57.992Z,12.70
2022-09-01T22:25:26.170Z,12.70
2022-09-01T22:27:56.082Z,12.70
2022-09-01T22:30:24.191Z,12.60
2022-09-01T22:32:52.268Z,12.60
2022-09-01T22:35:21.199Z,12.50
2022-09-01T22:37:50.150Z,12.40
2022-09-01T22:40:18.657Z,12.50
2022-09-01T22:42:46.996Z,12.40
2022-09-01T22:45:16.457Z,12.40
2022-09-01T22:47:44.578Z,12.20
2022-09-01T22:50:12.748Z,12.20
2022-09-01T22:52:41.082Z,12.10
2022-09-01T22:55:10.724Z,12.10
2022-09-01T22:57:39.053Z,11.90
2022-09-01T23:00:10.102Z,11.90
2022-09-01T23:02:39.601Z,12.00
2022-09-01T23:05:08.167Z,12.10
2022-09-01T23:07:39.703Z,12.00
2022-09-01T23:10:10.165Z,11.80
2022-09-01T23:12:38.517Z,11.80
2022-09-01T23:15:07.957Z,11.90
2022-09-01T23:17:37.980Z,11.70
2022-09-01T23:20:12.928Z,11.80
2022-09-01T23:22:41.460Z,11.60
2022-09-01T23:25:10.684Z,11.60
2022-09-01T23:27:39.371Z,11.60
2022-09-01T23:30:10.223Z,11.60
2022-09-01T23:32:38.305Z,11.70
2022-09-01T23:35:09.451Z,11.60
2022-09-01T23:37:37.591Z,11.50
2022-09-01T23:40:07.782Z,11.50
2022-09-01T23:42:36.153Z,11.50
2022-09-01T23:45:06.015Z,11.40
2022-09-01T23:47:34.136Z,11.40
2022-09-01T23:50:02.701Z,11.40
2022-09-01T23:52:32.251Z,11.40
2022-09-01T23:55:00.727Z,11.40
2022-09-01T23:57:28.762Z,11.40
2022-09-01T23:59:57.877Z,11.20
